createdAt,value
2023-11-24T00:03:54.949Z,98533.44
2023-11-24T00:08:56.676Z,98554.63
2023-11-24T00:13:58.520Z,98567.69
2023-11-24T00:19:00.328Z,98583.94
2023-11-24T00:24:05.483Z,98554.84
2023-11-24T00:29:08.189Z,98557.53
2023-11-24T00:34:10.216Z,98577.09
2023-11-24T00:39:12.086Z,98588.75
2023-11-24T00:44:13.862Z,98599.31
2023-11-24T00:49:15.960Z,98634.56
2023-11-24T00:54:17.663Z,98612.09
2023-11-24T00:59:19.760Z,98606.91
2023-11-24T01:04:21.980Z,98586.25
2023-11-24T01:09:25.319Z,98569.41
2023-11-24T01:14:29.271Z,98558.59
2023-11-24T01:19:32.786Z,98579.25
2023-11-24T01:24:34.578Z,98596.09
2023-11-24T01:29:36.592Z,98591.63
2023-11-24T01:34:39.373Z,98573.91
2023-11-24T01:39:41.308Z,98573.44
2023-11-24T01:44:43.660Z,98584.44
2023-11-24T01:49:47.087Z,98545.25
2023-11-24T01:54:49.291Z,98552.97
2023-11-24T01:59:51.312Z,98523.47
2023-11-24T02:04:53.342Z,98539.97
2023-11-24T02:09:55.140Z,98521.75
2023-11-24T02:14:56.883Z,98545.91
2023-11-24T02:19:59.271Z,98546.72
2023-11-24T02:25:01.044Z,98543.50
2023-11-24T02:30:03.154Z,98544.78
2023-11-24T02:35:06.556Z,98564.31
2023-11-24T02:40:09.797Z,98568.19
2023-11-24T02:45:13.224Z,98564.69
2023-11-24T02:50:14.993Z,98564.50
2023-11-24T02:55:17.285Z,98561.47
2023-11-24T03:00:19.513Z,98544.91
2023-11-24T03:05:21.351Z,98545.59
2023-11-24T03:10:23.614Z,98545.41
2023-11-24T03:15:25.578Z,98530.78
2023-11-24T03:20:27.323Z,98524.75
2023-11-24T03:25:29.029Z,98524.47
2023-11-24T03:30:31.678Z,98512.59
2023-11-24T03:35:33.452Z,98524.06
2023-11-24T03:40:35.599Z,98531.78
2023-11-24T03:45:37.323Z,98532.94
2023-11-24T03:50:39.078Z,98547.66
2023-11-24T03:55:40.895Z,98535.81
2023-11-24T04:00:42.723Z,98542.16
2023-11-24T04:05:44.596Z,98539.69
2023-11-24T04:10:46.315Z,98530.50
2023-11-24T04:15:48.060Z,98513.72
2023-11-24T04:20:49.847Z,98524.41
2023-11-24T04:25:51.721Z,98506.38
2023-11-24T04:30:55.798Z,98510.91
2023-11-24T04:35:59.106Z,98499.09
2023-11-24T04:41:03.140Z,98489.97
2023-11-24T04:46:05.035Z,98492.63
2023-11-24T04:51:06.845Z,98492.28
2023-11-24T04:56:09.524Z,98496.91
2023-11-24T05:01:12.780Z,98490.91
2023-11-24T05:06:14.575Z,98488.59
2023-11-24T05:11:16.449Z,98481.41
2023-11-24T05:16:19.834Z,98486.59
2023-11-24T05:21:21.645Z,98494.00
2023-11-24T05:26:24.196Z,98484.69
2023-11-24T05:31:26.440Z,98474.72
2023-11-24T05:36:29.075Z,98483.41
2023-11-24T05:41:30.958Z,98487.38
2023-11-24T05:46:32.724Z,98486.03
2023-11-24T05:51:34.537Z,98477.69
2023-11-24T05:56:36.243Z,98474.69
2023-11-24T06:01:37.998Z,98481.19
2023-11-24T06:06:39.792Z,98473.88
2023-11-24T06:11:42.534Z,98476.06
2023-11-24T06:16:44.310Z,98469.19
2023-11-24T06:21:46.039Z,98466.69
2023-11-24T06:26:47.974Z,98460.88
2023-11-24T06:31:49.695Z,98451.28
2023-11-24T06:36:51.492Z,98452.28
2023-11-24T06:41:54.922Z,98436.25
2023-11-24T06:46:56.870Z,98434.06
2023-11-24T06:51:58.651Z,98433.06
2023-11-24T06:57:00.357Z,98443.84
2023-11-24T07:02:02.109Z,98438.22
2023-11-24T07:07:04.036Z,98468.59
2023-11-24T07:12:05.993Z,98455.34
2023-11-24T07:17:07.768Z,98448.03
2023-11-24T07:22:09.782Z,98437.44
2023-11-24T07:27:11.537Z,98438.25
2023-11-24T07:32:13.231Z,98433.78
2023-11-24T07:37:14.971Z,98428.94
2023-11-24T07:42:16.725Z,98431.88
2023-11-24T07:47:20.122Z,98436.00
2023-11-24T07:52:21.867Z,98440.03
2023-11-24T07:57:26.264Z,98443.38
2023-11-24T08:02:28.817Z,98425.81
2023-11-24T08:07:30.653Z,98434.75
2023-11-24T08:12:32.392Z,98422.41
2023-11-24T08:17:34.554Z,98427.78
2023-11-24T08:22:36.361Z,98400.00
2023-11-24T08:27:38.176Z,98403.56
2023-11-24T08:32:45.267Z,98390.03
2023-11-24T08:37:47.781Z,98405.91
2023-11-24T08:42:49.840Z,98405.34
2023-11-24T08:47:52.076Z,98393.16
2023-11-24T08:52:53.912Z,98389.22
2023-11-24T08:58:00.781Z,98394.22
2023-11-24T09:03:06.491Z,98427.09
2023-11-24T09:08:08.570Z,98427.47
2023-11-24T09:13:14.592Z,98400.34
2023-11-24T09:18:16.827Z,98383.50
2023-11-24T09:23:18.573Z,98386.78
2023-11-24T09:28:21.882Z,98383.31
2023-11-24T09:33:23.710Z,98367.44
2023-11-24T09:38:25.425Z,98389.06
2023-11-24T09:43:27.825Z,98397.94
2023-11-24T09:48:33.353Z,98397.47
2023-11-24T09:53:35.505Z,98396.84
2023-11-24T09:58:38.000Z,98387.69
2023-11-24T10:03:40.466Z,98368.72
2023-11-24T10:08:42.399Z,98328.47
2023-11-24T10:13:48.457Z,98328.88
2023-11-24T10:18:53.184Z,98318.59
2023-11-24T10:23:55.408Z,98307.66
2023-11-24T10:28:58.609Z,98285.13
2023-11-24T10:34:00.996Z,98275.66
2023-11-24T10:39:07.818Z,98285.41
2023-11-24T10:44:11.520Z,98266.63
2023-11-24T10:49:36.055Z,98245.47
2023-11-24T10:54:41.831Z,98239.00
2023-11-24T10:59:44.534Z,98226.53
2023-11-24T11:05:02.450Z,98241.31
2023-11-24T11:10:14.258Z,98240.31
2023-11-24T11:15:16.668Z,98244.53
2023-11-24T11:20:32.071Z,98243.38
2023-11-24T11:25:37.042Z,98230.69
2023-11-24T11:30:39.631Z,98197.81
2023-11-24T11:35:45.914Z,98211.66
2023-11-24T11:40:52.934Z,98210.81
2023-11-24T11:45:58.546Z,98186.22
2023-11-24T11:51:05.519Z,98178.28
2023-11-24T11:56:10.448Z,98186.16
2023-11-24T12:01:14.978Z,98160.09
2023-11-24T12:06:17.062Z,98165.44
2023-11-24T12:11:18.958Z,98149.44
2023-11-24T12:16:28.599Z,98155.63
2023-11-24T12:21:30.678Z,98174.00
2023-11-24T12:26:34.101Z,98163.44
2023-11-24T12:31:38.588Z,98167.75
2023-11-24T12:36:41.887Z,98148.00
2023-11-24T12:41:45.024Z,98148.09
2023-11-24T12:46:46.824Z,98123.00
2023-11-24T12:51:49.435Z,98120.72
2023-11-24T12:56:51.459Z,98107.66
2023-11-24T13:01:53.965Z,98086.91
2023-11-24T13:06:56.657Z,98081.03
2023-11-24T13:12:05.224Z,98081.56
2023-11-24T13:17:12.767Z,98097.56
2023-11-24T13:22:14.646Z,98113.38
2023-11-24T13:27:16.685Z,98123.72
2023-11-24T13:32:19.156Z,98113.13
2023-11-24T13:37:20.974Z,98108.34
2023-11-24T13:42:23.150Z,98094.56
2023-11-24T13:47:26.590Z,98102.41
2023-11-24T13:52:28.360Z,98082.47
2023-11-24T13:57:30.064Z,98077.13
2023-11-24T14:02:31.918Z,98069.84
2023-11-24T14:07:33.720Z,98069.84
2023-11-24T14:12:36.379Z,98085.94
2023-11-24T14:17:38.819Z,98079.16
2023-11-24T14:22:40.554Z,98071.19
2023-11-24T14:27:42.399Z,98058.41
2023-11-24T14:32:44.290Z,98047.47
2023-11-24T14:37:46.501Z,98038.16
2023-11-24T14:42:48.301Z,98036.34
2023-11-24T14:47:51.377Z,98024.75
2023-11-24T14:52:54.032Z,98018.28
2023-11-24T14:57:57.280Z,98036.38
2023-11-24T15:03:02.440Z,98027.75
2023-11-24T15:08:11.442Z,98022.44
2023-11-24T15:13:22.242Z,98013.13
2023-11-24T15:18:24.182Z,98009.69
2023-11-24T15:23:25.961Z,98012.81
2023-11-24T15:28:27.793Z,98013.97
2023-11-24T15:33:32.965Z,98003.69
2023-11-24T15:38:35.666Z,98000.22
2023-11-24T15:43:37.350Z,98007.66
2023-11-24T15:48:40.831Z,98013.66
2023-11-24T15:53:42.549Z,98006.81
2023-11-24T15:58:46.724Z,98019.09
2023-11-24T16:03:50.352Z,98013.78
2023-11-24T16:08:56.033Z,98028.88
2023-11-24T16:13:58.087Z,98055.94
2023-11-24T16:18:59.887Z,98052.72
2023-11-24T16:24:01.650Z,98031.25
2023-11-24T16:29:04.675Z,98011.19
2023-11-24T16:34:06.483Z,98022.31
2023-11-24T16:39:10.847Z,98027.50
2023-11-24T16:44:12.628Z,98032.63
2023-11-24T16:49:14.547Z,98010.78
2023-11-24T16:54:16.329Z,97983.63
2023-11-24T16:59:20.328Z,97972.41
2023-11-24T17:04:22.248Z,97966.28
2023-11-24T17:09:24.408Z,97968.28
2023-11-24T17:14:27.585Z,97955.78
2023-11-24T17:19:31.944Z,97948.19
2023-11-24T17:24:34.294Z,97932.56
2023-11-24T17:29:36.026Z,97943.03
2023-11-24T17:34:38.201Z,97942.69
2023-11-24T17:39:41.586Z,97939.56
2023-11-24T17:44:43.293Z,97926.28
2023-11-24T17:49:44.996Z,97923.31
2023-11-24T17:54:46.697Z,97922.81
2023-11-24T17:59:51.176Z,97908.22
2023-11-24T18:04:52.921Z,97906.75
2023-11-24T18:09:54.606Z,97901.44
2023-11-24T18:14:56.313Z,97928.59
2023-11-24T18:19:58.011Z,97928.28
2023-11-24T18:24:59.988Z,97935.41
2023-11-24T18:30:02.157Z,97945.66
2023-11-24T18:35:04.176Z,97957.09
2023-11-24T18:40:06.775Z,97961.41
2023-11-24T18:45:10.088Z,97965.72
2023-11-24T18:50:11.905Z,97971.22
2023-11-24T18:55:13.761Z,97962.56
2023-11-24T19:00:19.979Z,97958.25
2023-11-24T19:05:22.207Z,97943.00
2023-11-24T19:10:23.978Z,97939.22
2023-11-24T19:15:25.686Z,97920.13
2023-11-24T19:20:27.415Z,97918.81
2023-11-24T19:25:29.260Z,97918.16
2023-11-24T19:30:30.982Z,97905.59
2023-11-24T19:35:33.458Z,97901.44
2023-11-24T19:40:36.326Z,97884.38
2023-11-24T19:45:39.166Z,97882.38
2023-11-24T19:50:40.888Z,97872.28
2023-11-24T19:55:43.150Z,97871.44
2023-11-24T20:00:45.480Z,97857.34
2023-11-24T20:05:47.235Z,97867.75
2023-11-24T20:10:48.993Z,97862.59
2023-11-24T20:15:50.731Z,97862.13
2023-11-24T20:20:53.089Z,97866.91
2023-11-24T20:25:54.852Z,97864.28
2023-11-24T20:30:57.281Z,97860.16
2023-11-24T20:35:59.118Z,97851.38
2023-11-24T20:41:00.930Z,97870.25
2023-11-24T20:46:04.628Z,97866.31
2023-11-24T20:51:07.681Z,97864.66
2023-11-24T20:56:11.121Z,97868.13
2023-11-24T21:01:13.038Z,97850.56
2023-11-24T21:06:14.818Z,97850.41
2023-11-24T21:11:16.518Z,97851.56
2023-11-24T21:16:18.349Z,97852.53
2023-11-24T21:21:20.286Z,97851.56
2023-11-24T21:26:22.864Z,97832.50
2023-11-24T21:31:24.683Z,97837.31
2023-11-24T21:36:26.393Z,97844.25
2023-11-24T21:41:28.101Z,97848.59
2023-11-24T21:46:29.945Z,97847.09
2023-11-24T21:51:31.773Z,97843.13
2023-11-24T21:56:34.688Z,97856.22
2023-11-24T22:01:37.221Z,97847.28
2023-11-24T22:06:39.348Z,97842.97
2023-11-24T22:11:41.428Z,97845.28
2023-11-24T22:16:43.356Z,97849.56
2023-11-24T22:21:45.217Z,97849.41
2023-11-24T22:26:46.909Z,97859.34
2023-11-24T22:31:49.648Z,97856.06
2023-11-24T22:36:51.813Z,97866.66
2023-11-24T22:41:53.535Z,97870.81
2023-11-24T22:46:55.361Z,97876.75
2023-11-24T22:51:57.655Z,97887.16
2023-11-24T22:56:59.750Z,97899.59
2023-11-24T23:02:01.722Z,97907.06
2023-11-24T23:07:03.793Z,97908.22
2023-11-24T23:12:10.643Z,97909.88
2023-11-24T23:17:12.389Z,97918.81
2023-11-24T23:22:23.615Z,97924.59
2023-11-24T23:27:32.748Z,97921.94
2023-11-24T23:32:36.200Z,97933.91
2023-11-24T23:37:37.970Z,97943.84
2023-11-24T23:42:39.724Z,97942.16
2023-11-24T23:47:42.427Z,97944.63
2023-11-24T23:52:46.280Z,97948.75
2023-11-24T23:57:50.156Z,97958.53
